Time;durP1;ratioP1;P1;durP2;ratioP2;P2;SDS_P1;SDS_P2;PMS_P1;PMS_P2;Temp;Humidity;BMP_temperature;BMP_pressure;BME280_temperature;BME280_humidity;BME280_pressure;Samples;Min_cycle;Max_cycle;Signal;HPM_P1;HPM_P2
2023/04/27 00:01:13;;;;;;;4.32;3.92;;;16.40;99.90;;;;;;5073204;28;20248;-71
2023/04/27 00:03:41;;;;;;;10.80;4.65;;;16.40;99.90;;;;;;5072661;28;20214;-71
2023/04/27 00:06:09;;;;;;;4.88;4.47;;;16.30;99.90;;;;;;5073179;28;20692;-71
2023/04/27 00:08:37;;;;;;;4.63;3.42;;;16.30;99.90;;;;;;5072815;28;20202;-71
2023/04/27 00:11:05;;;;;;;4.30;3.97;;;16.30;99.90;;;;;;5072825;28;20229;-71
2023/04/27 00:13:32;;;;;;;4.72;3.92;;;16.20;99.90;;;;;;5072552;28;20241;-71
2023/04/27 00:16:02;;;;;;;4.00;3.70;;;16.10;99.90;;;;;;5072836;28;20230;-71
2023/04/27 00:18:29;;;;;;;8.98;3.95;;;16.10;99.90;;;;;;5072311;28;20250;-71
2023/04/27 00:20:56;;;;;;;6.05;4.25;;;16.10;99.90;;;;;;5072990;28;20206;-71
2023/04/27 00:23:23;;;;;;;3.88;3.58;;;16.00;99.90;;;;;;5072261;28;20681;-71
2023/04/27 00:25:51;;;;;;;3.80;3.50;;;16.10;99.90;;;;;;5072721;28;20299;-71
2023/04/27 00:28:18;;;;;;;4.38;4.07;;;16.00;99.90;;;;;;5072858;28;20245;-71
2023/04/27 00:30:45;;;;;;;4.90;4.43;;;16.00;99.90;;;;;;5072134;28;20678;-71
2023/04/27 00:33:12;;;;;;;4.25;3.63;;;16.00;99.90;;;;;;5072526;28;20217;-71
2023/04/27 00:35:39;;;;;;;4.53;4.07;;;16.10;99.90;;;;;;5072340;28;20226;-71
2023/04/27 00:38:06;;;;;;;4.05;3.50;;;16.10;99.90;;;;;;5072404;28;20261;-71
2023/04/27 00:40:32;;;;;;;5.28;4.15;;;16.10;99.90;;;;;;5071898;28;20242;-71
2023/04/27 00:43:01;;;;;;;4.28;3.90;;;16.10;99.90;;;;;;5072174;28;20674;-72
2023/04/27 00:45:28;;;;;;;5.43;3.75;;;16.00;99.90;;;;;;5071806;28;20234;-72
2023/04/27 00:47:55;;;;;;;4.53;4.22;;;16.10;99.90;;;;;;5072078;28;20700;-71
2023/04/27 00:50:29;;;;;;;4.40;4.00;;;16.00;99.90;;;;;;5072154;28;20238;-71
2023/04/27 00:52:57;;;;;;;4.20;3.90;;;16.00;99.90;;;;;;5071860;28;20237;-71
2023/04/27 00:55:24;;;;;;;4.85;3.72;;;16.00;99.90;;;;;;5071401;28;20237;-71
2023/04/27 00:57:51;;;;;;;5.97;4.75;;;16.10;99.90;;;;;;5071850;28;20685;-71
2023/04/27 01:00:19;;;;;;;5.55;5.10;;;16.00;99.90;;;;;;5072212;28;20279;-71
2023/04/27 01:02:47;;;;;;;4.32;4.03;;;16.10;99.90;;;;;;5071985;28;20242;-71
2023/04/27 01:05:15;;;;;;;4.43;4.13;;;16.10;99.90;;;;;;5072011;28;20275;-71
2023/04/27 01:07:42;;;;;;;4.40;4.10;;;16.10;99.90;;;;;;5071602;28;20213;-71
2023/04/27 01:10:10;;;;;;;4.80;4.30;;;16.10;99.90;;;;;;5071658;28;20258;-72
2023/04/27 01:12:37;;;;;;;4.47;4.07;;;16.10;99.90;;;;;;5071321;28;20213;-71
2023/04/27 01:15:05;;;;;;;5.90;5.32;;;16.10;99.90;;;;;;5071413;28;20241;-71
2023/04/27 01:17:34;;;;;;;5.68;5.07;;;16.10;99.90;;;;;;5071283;28;20206;-72
2023/04/27 01:20:01;;;;;;;6.88;5.03;;;16.10;99.90;;;;;;5071592;28;20240;-71
2023/04/27 01:22:28;;;;;;;5.25;4.22;;;16.10;99.90;;;;;;5071198;28;20303;-71
2023/04/27 01:24:56;;;;;;;4.30;3.90;;;16.10;99.90;;;;;;5071369;28;20791;-71
2023/04/27 01:27:23;;;;;;;4.72;4.32;;;16.20;99.90;;;;;;5071130;28;20241;-71
2023/04/27 01:29:50;;;;;;;4.45;4.15;;;16.10;99.90;;;;;;5071402;28;20240;-71
2023/04/27 01:32:17;;;;;;;7.55;4.22;;;16.10;99.90;;;;;;5071821;28;20242;-71
2023/04/27 01:34:44;;;;;;;3.70;3.40;;;16.10;99.90;;;;;;5071025;28;20234;-71
2023/04/27 01:37:11;;;;;;;3.92;3.63;;;16.10;99.90;;;;;;5071352;28;20242;-71
2023/04/27 01:39:38;;;;;;;8.02;3.95;;;16.00;99.90;;;;;;5070444;28;20721;-71
2023/04/27 01:42:07;;;;;;;3.72;3.42;;;16.10;99.90;;;;;;5071099;28;20244;-71
2023/04/27 01:44:33;;;;;;;3.97;3.58;;;16.10;99.90;;;;;;5070318;28;20242;-71
2023/04/27 01:47:00;;;;;;;5.18;4.00;;;16.10;99.90;;;;;;5071227;28;20206;-71
2023/04/27 01:49:27;;;;;;;5.07;3.58;;;16.10;99.90;;;;;;5070788;28;20249;-72
2023/04/27 01:51:54;;;;;;;4.45;3.40;;;16.10;99.90;;;;;;5071102;28;20210;-71
2023/04/27 01:54:21;;;;;;;4.13;3.72;;;16.20;99.90;;;;;;5070596;28;20229;-71
2023/04/27 01:56:48;;;;;;;3.28;2.97;;;16.10;99.90;;;;;;5071288;28;20248;-71
2023/04/27 01:59:16;;;;;;;3.28;2.97;;;16.20;99.90;;;;;;5071341;28;20265;-71
2023/04/27 02:01:43;;;;;;;3.95;3.65;;;16.20;99.90;;;;;;5070636;28;20244;-71
2023/04/27 02:04:10;;;;;;;4.13;3.05;;;16.20;99.90;;;;;;5070867;28;20804;-71
2023/04/27 02:06:37;;;;;;;3.30;3.00;;;16.20;99.90;;;;;;5070365;28;20214;-71
2023/04/27 02:09:04;;;;;;;3.40;3.20;;;16.20;99.90;;;;;;5070607;28;20202;-71
2023/04/27 02:11:31;;;;;;;3.38;3.15;;;16.10;99.90;;;;;;5070748;28;20208;-72
2023/04/27 02:13:58;;;;;;;4.82;4.20;;;16.10;99.90;;;;;;5070729;28;20249;-71
2023/04/27 02:16:26;;;;;;;4.80;4.05;;;16.10;99.90;;;;;;5070536;28;20236;-71
2023/04/27 02:18:53;;;;;;;5.72;3.60;;;16.10;99.90;;;;;;5070493;28;20274;-71
2023/04/27 02:21:20;;;;;;;4.13;3.83;;;16.10;99.90;;;;;;5070443;28;20582;-71
2023/04/27 02:23:47;;;;;;;4.30;4.00;;;16.10;99.90;;;;;;5071184;28;20206;-71
2023/04/27 02:26:18;;;;;;;3.90;3.60;;;16.10;99.90;;;;;;5070905;28;20285;-71
2023/04/27 02:28:46;;;;;;;3.92;3.60;;;16.00;99.90;;;;;;5070744;28;20202;-71
2023/04/27 02:31:13;;;;;;;5.32;4.47;;;16.10;99.90;;;;;;5070679;28;20216;-71
2023/04/27 02:33:42;;;;;;;5.72;4.22;;;16.10;99.90;;;;;;5070283;28;20206;-71
2023/04/27 02:36:09;;;;;;;3.35;3.10;;;16.00;99.90;;;;;;5070338;28;20237;-72
2023/04/27 02:38:36;;;;;;;4.32;4.03;;;16.00;99.90;;;;;;5070315;28;20230;-71
2023/04/27 02:41:03;;;;;;;4.45;4.05;;;16.00;99.90;;;;;;5070469;28;20242;-71
2023/04/27 02:43:30;;;;;;;4.45;4.05;;;16.00;99.90;;;;;;5070086;28;20240;-70
2023/04/27 02:45:57;;;;;;;4.28;3.88;;;16.00;99.90;;;;;;5070651;28;20244;-70
2023/04/27 02:48:24;;;;;;;3.90;3.60;;;16.00;99.90;;;;;;5069993;28;20705;-71
2023/04/27 02:50:52;;;;;;;3.80;3.50;;;16.00;99.90;;;;;;5070237;28;20241;-70
2023/04/27 02:53:19;;;;;;;4.18;3.88;;;16.00;99.90;;;;;;5070893;28;20640;-73
2023/04/27 02:55:47;;;;;;;4.75;4.20;;;16.00;99.90;;;;;;5070536;28;20234;-71
2023/04/27 02:58:14;;;;;;;5.53;5.13;;;16.00;99.90;;;;;;5074269;28;20206;-70
2023/04/27 03:00:41;;;;;;;4.32;4.03;;;16.00;99.90;;;;;;5073752;28;20332;-71
2023/04/27 03:03:08;;;;;;;4.00;3.70;;;16.00;99.90;;;;;;5074128;28;20230;-70
2023/04/27 03:05:36;;;;;;;4.70;4.30;;;16.00;99.90;;;;;;5073421;28;20202;-71
2023/04/27 03:08:04;;;;;;;4.20;3.78;;;16.00;99.90;;;;;;5074253;28;20628;-71
2023/04/27 03:10:31;;;;;;;4.00;3.70;;;16.00;99.90;;;;;;5073785;28;20229;-71
2023/04/27 03:12:58;;;;;;;5.25;4.10;;;16.00;99.90;;;;;;5073916;28;20237;-70
2023/04/27 03:15:25;;;;;;;4.32;3.92;;;16.00;99.90;;;;;;5073540;28;20567;-71
2023/04/27 03:17:52;;;;;;;4.97;4.63;;;16.00;99.90;;;;;;5073848;28;20237;-71
2023/04/27 03:20:19;;;;;;;4.05;3.67;;;16.00;99.90;;;;;;5074069;28;20273;-70
2023/04/27 03:22:46;;;;;;;3.85;3.53;;;15.90;99.90;;;;;;5073713;28;20207;-70
2023/04/27 03:25:15;;;;;;;4.10;3.80;;;15.90;99.90;;;;;;5073848;28;20205;-71
2023/04/27 03:27:42;;;;;;;4.57;4.18;;;16.00;99.90;;;;;;5073576;28;20237;-70
2023/04/27 03:30:10;;;;;;;4.00;3.70;;;16.00;99.90;;;;;;5073552;28;20742;-71
2023/04/27 03:32:37;;;;;;;4.85;4.35;;;15.90;99.90;;;;;;5073425;28;20289;-70
2023/04/27 03:35:05;;;;;;;4.13;3.83;;;15.90;99.90;;;;;;5073618;28;20314;-70
2023/04/27 03:37:33;;;;;;;4.82;3.63;;;15.90;99.90;;;;;;5073121;28;20255;-70
2023/04/27 03:40:00;;;;;;;3.60;3.40;;;15.90;99.90;;;;;;5073496;28;20234;-71
2023/04/27 03:42:28;;;;;;;4.93;4.63;;;15.90;99.90;;;;;;5073113;28;20217;-70
2023/04/27 03:44:55;;;;;;;5.50;5.00;;;15.90;99.90;;;;;;5073411;28;20306;-71
2023/04/27 03:47:22;;;;;;;5.18;4.57;;;15.90;99.90;;;;;;5073364;28;20248;-70
2023/04/27 03:49:49;;;;;;;4.38;4.03;;;15.90;99.90;;;;;;5073374;28;20210;-71
2023/04/27 03:52:15;;;;;;;4.82;4.43;;;15.90;99.90;;;;;;5073745;28;20230;-71
2023/04/27 03:54:42;;;;;;;4.20;3.90;;;15.90;99.90;;;;;;5072672;28;20241;-71
2023/04/27 03:57:09;;;;;;;4.07;3.78;;;15.90;99.90;;;;;;5073094;28;20697;-70
2023/04/27 03:59:37;;;;;;;5.55;5.15;;;15.90;99.90;;;;;;5072924;28;20268;-71
2023/04/27 04:02:05;;;;;;;5.93;4.80;;;15.90;99.90;;;;;;5073111;28;20237;-71
2023/04/27 04:04:32;;;;;;;5.03;4.63;;;15.90;99.90;;;;;;5072540;28;20212;-71
2023/04/27 04:06:59;;;;;;;5.00;4.60;;;15.90;99.90;;;;;;5072682;28;20256;-71
2023/04/27 04:09:26;;;;;;;5.05;4.65;;;15.90;99.90;;;;;;5072737;28;20238;-71
2023/04/27 04:11:53;;;;;;;4.60;4.20;;;15.80;99.90;;;;;;5072825;28;20213;-71
2023/04/27 04:14:20;;;;;;;4.90;4.50;;;15.90;99.90;;;;;;5073122;28;20238;-71
2023/04/27 04:16:48;;;;;;;4.55;4.05;;;15.90;99.90;;;;;;5072934;28;20202;-71
2023/04/27 04:19:15;;;;;;;4.35;4.05;;;15.80;99.90;;;;;;5072422;28;20222;-71
2023/04/27 04:21:42;;;;;;;4.95;4.47;;;15.90;99.90;;;;;;5072487;28;20210;-71
2023/04/27 04:24:09;;;;;;;3.92;3.63;;;15.80;99.90;;;;;;5072616;28;20213;-72
2023/04/27 04:26:37;;;;;;;4.80;4.28;;;15.80;99.90;;;;;;5072167;28;20293;-70
2023/04/27 04:29:04;;;;;;;4.88;4.38;;;15.80;99.90;;;;;;5072753;28;20213;-71
2023/04/27 04:31:32;;;;;;;4.40;4.00;;;15.90;99.90;;;;;;5072120;28;20237;-70
2023/04/27 04:34:02;;;;;;;5.55;4.07;;;15.80;99.90;;;;;;5072421;28;20198;-71
2023/04/27 04:36:29;;;;;;;4.07;3.78;;;15.80;99.90;;;;;;5072066;28;20241;-70
2023/04/27 04:38:57;;;;;;;4.85;4.35;;;15.80;99.90;;;;;;5072262;28;20263;-71
2023/04/27 04:41:24;;;;;;;4.53;4.15;;;15.80;99.90;;;;;;5071959;28;20569;-70
2023/04/27 04:43:51;;;;;;;5.60;5.15;;;15.80;99.90;;;;;;5072374;28;20198;-70
2023/04/27 04:46:18;;;;;;;4.70;4.30;;;15.70;99.90;;;;;;5072728;28;20261;-70
2023/04/27 04:48:45;;;;;;;4.13;3.83;;;15.80;99.90;;;;;;5072053;28;20252;-70
2023/04/27 04:51:14;;;;;;;4.38;4.07;;;15.80;99.90;;;;;;5072220;28;20209;-70
2023/04/27 04:53:40;;;;;;;4.82;4.10;;;15.80;99.90;;;;;;5071992;28;20267;-70
2023/04/27 04:56:12;;;;;;;5.22;4.82;;;15.80;99.90;;;;;;5072221;28;20210;-69
2023/04/27 04:58:39;;;;;;;5.53;5.10;;;15.90;99.90;;;;;;5064770;28;20656;-70
2023/04/27 05:01:06;;;;;;;4.20;3.83;;;15.80;99.90;;;;;;5051184;28;20729;-67
2023/04/27 05:03:34;;;;;;;5.32;3.58;;;15.80;99.90;;;;;;5052886;28;20233;-68
2023/04/27 05:06:01;;;;;;;4.57;4.18;;;15.80;99.90;;;;;;5056052;28;20210;-70
2023/04/27 05:08:29;;;;;;;5.80;5.30;;;15.80;99.90;;;;;;5071117;28;20237;-71
2023/04/27 05:10:56;;;;;;;6.50;5.93;;;15.80;99.90;;;;;;5071870;28;20213;-71
2023/04/27 05:13:24;;;;;;;4.90;4.50;;;15.80;99.90;;;;;;5071107;28;20214;-70
2023/04/27 05:15:51;;;;;;;5.50;4.60;;;15.80;99.90;;;;;;5066445;28;20206;-70
2023/04/27 05:18:18;;;;;;;4.60;4.20;;;15.80;99.90;;;;;;5053957;28;20246;-70
2023/04/27 05:20:45;;;;;;;4.50;4.10;;;15.80;99.90;;;;;;5065227;28;20720;-72
2023/04/27 05:23:12;;;;;;;4.63;4.22;;;15.80;99.90;;;;;;5071263;28;20241;-71
2023/04/27 05:25:41;;;;;;;5.10;4.70;;;15.90;99.90;;;;;;5070912;28;20241;-71
2023/04/27 05:28:08;;;;;;;5.82;5.20;;;15.90;99.90;;;;;;5071424;28;20206;-69
2023/04/27 05:30:35;;;;;;;5.47;4.30;;;15.80;99.90;;;;;;5070751;28;20202;-67
2023/04/27 05:33:02;;;;;;;5.43;4.93;;;15.90;99.90;;;;;;5070879;28;20208;-67
2023/04/27 05:35:30;;;;;;;5.32;4.82;;;15.90;99.90;;;;;;5070927;28;20198;-67
2023/04/27 05:37:57;;;;;;;4.78;4.38;;;15.90;99.90;;;;;;5069949;28;20233;-67
2023/04/27 05:40:24;;;;;;;4.97;4.47;;;16.00;99.90;;;;;;5062017;28;20285;-68
2023/04/27 05:42:52;;;;;;;4.82;4.35;;;16.00;99.90;;;;;;5051054;28;20249;-67
2023/04/27 05:45:19;;;;;;;4.88;4.47;;;16.10;99.90;;;;;;5051326;28;20660;-68
2023/04/27 05:47:46;;;;;;;6.45;4.40;;;16.10;99.90;;;;;;5051737;28;20203;-68
2023/04/27 05:50:13;;;;;;;6.50;5.97;;;16.20;99.90;;;;;;5068133;28;20634;-70
2023/04/27 05:52:40;;;;;;;6.13;5.55;;;16.40;99.90;;;;;;5080198;28;20292;-67
2023/04/27 05:55:08;;;;;;;5.30;4.90;;;16.40;99.90;;;;;;5074061;28;20202;-68
2023/04/27 05:57:35;;;;;;;5.13;4.72;;;16.40;99.90;;;;;;5080820;28;20681;-68
2023/04/27 06:00:09;;;;;;;6.25;4.40;;;16.50;99.90;;;;;;5072800;28;20721;-70
2023/04/27 06:02:36;;;;;;;4.63;4.13;;;16.60;99.90;;;;;;5074279;28;20583;-70
2023/04/27 06:05:03;;;;;;;5.18;4.78;;;16.70;99.90;;;;;;5068637;28;20682;-69
2023/04/27 06:07:30;;;;;;;5.18;4.68;;;16.70;99.90;;;;;;5069092;28;20198;-69
2023/04/27 06:09:57;;;;;;;4.00;3.70;;;16.70;99.90;;;;;;5070765;28;20245;-70
2023/04/27 06:12:24;;;;;;;7.13;5.30;;;16.80;99.90;;;;;;5070313;28;20242;-70
2023/04/27 06:14:51;;;;;;;5.85;5.30;;;16.90;99.90;;;;;;5067386;28;20245;-70
2023/04/27 06:17:21;;;;;;;9.77;5.28;;;16.90;99.90;;;;;;5083734;28;20201;-70
2023/04/27 06:19:48;;;;;;;7.35;5.18;;;16.90;99.90;;;;;;5072571;28;20256;-70
2023/04/27 06:22:15;;;;;;;4.50;4.10;;;16.90;99.90;;;;;;5084055;28;20250;-70
2023/04/27 06:24:42;;;;;;;6.60;4.63;;;17.00;99.90;;;;;;5075716;28;20240;-70
2023/04/27 06:27:09;;;;;;;4.47;4.03;;;17.00;99.90;;;;;;5079310;28;20198;-70
2023/04/27 06:29:36;;;;;;;4.82;4.43;;;17.00;99.90;;;;;;5081783;28;20756;-71
2023/04/27 06:32:05;;;;;;;4.40;4.00;;;16.90;99.90;;;;;;5075995;28;20209;-70
2023/04/27 06:34:34;;;;;;;4.40;4.00;;;17.00;99.90;;;;;;5086177;28;20682;-70
2023/04/27 06:37:01;;;;;;;5.13;4.18;;;17.00;99.90;;;;;;5085633;28;20209;-71
2023/04/27 06:39:28;;;;;;;3.88;3.58;;;17.00;99.90;;;;;;5085855;28;20233;-71
2023/04/27 06:41:55;;;;;;;4.25;3.95;;;17.20;99.90;;;;;;5084662;28;20633;-70
2023/04/27 06:44:22;;;;;;;4.80;4.40;;;17.20;99.90;;;;;;5083497;28;20225;-71
2023/04/27 06:46:49;;;;;;;3.75;3.45;;;17.30;99.90;;;;;;5078902;28;20267;-70
2023/04/27 06:49:16;;;;;;;4.88;4.38;;;17.30;99.90;;;;;;5086301;28;20692;-71
2023/04/27 06:51:45;;;;;;;4.68;4.20;;;17.40;99.90;;;;;;5072407;28;20253;-70
2023/04/27 06:54:12;;;;;;;4.28;3.88;;;17.60;99.90;;;;;;5084213;28;20214;-70
2023/04/27 06:56:39;;;;;;;4.43;3.38;;;17.90;99.90;;;;;;5083204;28;20681;-70
2023/04/27 06:59:06;;;;;;;4.47;3.95;;;18.00;99.90;;;;;;5072538;28;20256;-71
2023/04/27 07:01:33;;;;;;;3.40;3.10;;;18.10;99.90;;;;;;5069150;28;20269;-72
2023/04/27 07:04:00;;;;;;;3.75;3.10;;;18.20;99.90;;;;;;5065208;28;20248;-70
2023/04/27 07:06:27;;;;;;;5.68;2.88;;;18.30;99.90;;;;;;5061510;28;20285;-70
2023/04/27 07:08:55;;;;;;;5.13;2.35;;;18.30;99.90;;;;;;5077816;28;20202;-71
2023/04/27 07:11:23;;;;;;;2.45;2.25;;;18.40;99.90;;;;;;5082754;28;20241;-71
2023/04/27 07:13:50;;;;;;;3.08;1.70;;;18.30;99.90;;;;;;5067718;28;20270;-71
2023/04/27 07:16:18;;;;;;;6.22;1.80;;;18.40;99.90;;;;;;5083296;28;20312;-71
2023/04/27 07:18:45;;;;;;;3.80;1.83;;;18.50;99.90;;;;;;5085511;28;20208;-71
2023/04/27 07:21:12;;;;;;;2.00;1.70;;;18.60;99.90;;;;;;5067663;28;20240;-72
2023/04/27 07:23:40;;;;;;;2.03;1.83;;;18.70;99.90;;;;;;5061099;28;20232;-71
2023/04/27 07:26:08;;;;;;;4.28;2.15;;;18.90;99.90;;;;;;5081951;28;20201;-71
2023/04/27 07:28:35;;;;;;;2.05;1.40;;;19.10;99.90;;;;;;5076462;28;20210;-72
2023/04/27 07:31:04;;;;;;;3.63;2.47;;;19.20;99.90;;;;;;5081337;28;20234;-75
2023/04/27 07:33:32;;;;;;;3.85;1.85;;;19.00;99.90;;;;;;5067517;28;20285;-72
2023/04/27 07:36:00;;;;;;;3.45;1.80;;;19.00;99.90;;;;;;5086634;28;20220;-71
2023/04/27 07:38:27;;;;;;;5.55;2.20;;;19.10;99.90;;;;;;5072730;28;20217;-72
2023/04/27 07:40:54;;;;;;;3.40;2.20;;;19.00;99.90;;;;;;5081791;28;20732;-72
2023/04/27 07:43:24;;;;;;;3.55;2.90;;;19.20;99.90;;;;;;5077057;28;20234;-72
2023/04/27 07:45:51;;;;;;;3.15;2.33;;;19.30;99.90;;;;;;5081822;28;20210;-72
2023/04/27 07:48:18;;;;;;;3.65;2.22;;;19.40;99.90;;;;;;5074819;28;20202;-72
2023/04/27 07:50:45;;;;;;;3.55;2.22;;;19.50;99.90;;;;;;5085481;28;20584;-72
2023/04/27 07:53:12;;;;;;;1.67;1.33;;;19.50;99.90;;;;;;5080267;28;20237;-74
2023/04/27 07:55:39;;;;;;;2.38;1.63;;;19.70;99.90;;;;;;5080825;28;20248;-72
2023/04/27 07:58:06;;;;;;;2.38;2.17;;;19.80;99.90;;;;;;5075624;28;20206;-71
2023/04/27 08:00:34;;;;;;;2.20;2.00;;;20.10;99.90;;;;;;5073404;28;20291;-72
2023/04/27 08:03:02;;;;;;;3.67;1.88;;;20.10;99.90;;;;;;5079722;28;20245;-72
2023/04/27 08:05:29;;;;;;;2.60;1.90;;;20.10;99.90;;;;;;5068837;28;20218;-72
2023/04/27 08:07:56;;;;;;;2.15;1.35;;;20.10;99.90;;;;;;5081117;28;20233;-73
2023/04/27 08:10:24;;;;;;;2.08;1.60;;;20.20;99.90;;;;;;5080993;28;20246;-73
2023/04/27 08:12:50;;;;;;;3.50;1.90;;;20.20;99.90;;;;;;5080420;28;20282;-73
2023/04/27 08:15:18;;;;;;;1.77;1.50;;;20.30;99.90;;;;;;5082327;28;20271;-72
2023/04/27 08:17:47;;;;;;;3.95;1.30;;;20.30;99.90;;;;;;5074712;28;20234;-73
2023/04/27 08:20:13;;;;;;;3.35;1.88;;;20.20;99.90;;;;;;5082161;28;20697;-73
2023/04/27 08:22:41;;;;;;;2.33;1.90;;;20.10;99.90;;;;;;5077936;28;20237;-73
2023/04/27 08:25:09;;;;;;;3.25;1.42;;;20.00;99.90;;;;;;5082192;28;20685;-72
2023/04/27 08:27:37;;;;;;;2.58;1.27;;;19.80;99.90;;;;;;5077653;28;20237;-73
2023/04/27 08:30:05;;;;;;;2.10;1.88;;;19.90;99.90;;;;;;5083336;28;20241;-73
2023/04/27 08:32:33;;;;;;;2.42;1.90;;;20.00;99.90;;;;;;5085245;28;20223;-73
2023/04/27 08:35:01;;;;;;;2.05;1.35;;;20.00;99.90;;;;;;5080092;28;20227;-73
2023/04/27 08:37:28;;;;;;;2.33;1.48;;;20.00;99.90;;;;;;5077928;28;20237;-73
2023/04/27 08:39:55;;;;;;;2.83;1.30;;;20.20;99.90;;;;;;5084219;28;20238;-72
2023/04/27 08:42:22;;;;;;;2.65;1.50;;;20.10;99.90;;;;;;5083951;28;20288;-73
2023/04/27 08:44:49;;;;;;;2.95;1.60;;;20.10;99.90;;;;;;5079716;28;20210;-74
2023/04/27 08:47:15;;;;;;;1.75;1.55;;;20.10;99.90;;;;;;5079929;28;20213;-73
2023/04/27 08:49:42;;;;;;;3.05;1.40;;;20.10;99.90;;;;;;5082860;28;20264;-72
2023/04/27 08:52:15;;;;;;;2.85;1.30;;;20.10;99.90;;;;;;5076684;28;20246;-74
2023/04/27 08:54:42;;;;;;;2.00;1.35;;;20.30;99.90;;;;;;5082320;28;20570;-73
2023/04/27 08:57:10;;;;;;;2.42;1.27;;;20.40;99.90;;;;;;5082351;28;20205;-74
2023/04/27 08:59:37;;;;;;;1.58;1.48;;;20.50;99.90;;;;;;5078839;28;20205;-74
2023/04/27 09:02:04;;;;;;;1.75;1.40;;;20.70;99.90;;;;;;5081339;28;20328;-72
2023/04/27 09:04:38;;;;;;;1.67;1.55;;;20.90;99.90;;;;;;5083409;28;20697;-73
2023/04/27 09:07:14;;;;;;;1.52;1.15;;;21.60;99.90;;;;;;5081582;28;20208;-75
2023/04/27 09:09:41;;;;;;;2.80;2.08;;;22.50;99.90;;;;;;5078063;28;20205;-73
2023/04/27 09:12:16;;;;;;;4.55;1.55;;;22.70;99.90;;;;;;5080396;28;20678;-73
2023/04/27 09:14:43;;;;;;;3.90;1.55;;;22.40;99.90;;;;;;5083186;28;20232;-73
2023/04/27 09:17:10;;;;;;;2.40;1.92;;;22.30;99.90;;;;;;5076294;28;20270;-74
2023/04/27 09:19:37;;;;;;;1.33;1.08;;;22.00;99.90;;;;;;5083439;28;20214;-73
2023/04/27 09:22:07;;;;;;;1.00;0.90;;;22.10;99.90;;;;;;5080870;28;20236;-73
2023/04/27 09:24:35;;;;;;;1.33;1.23;;;22.20;99.90;;;;;;5078495;28;20292;-72
2023/04/27 09:27:03;;;;;;;2.65;1.20;;;22.60;99.90;;;;;;5080988;28;20214;-73
2023/04/27 09:29:34;;;;;;;1.85;0.95;;;22.90;99.90;;;;;;5079506;28;20201;-72
2023/04/27 09:32:02;;;;;;;1.42;0.90;;;23.20;99.90;;;;;;5067361;28;20215;-74
2023/04/27 09:34:39;;;;;;;1.08;0.88;;;23.00;99.90;;;;;;5064908;28;20217;-71
2023/04/27 09:37:07;;;;;;;2.50;1.20;;;22.90;99.90;;;;;;5084860;28;20703;-73
2023/04/27 09:39:36;;;;;;;2.20;1.55;;;23.30;99.90;;;;;;5077715;28;20233;-73
2023/04/27 09:42:04;;;;;;;1.30;1.20;;;23.40;99.90;;;;;;5079086;28;20961;-72
2023/04/27 09:44:31;;;;;;;1.33;0.98;;;23.70;99.90;;;;;;5071101;28;20725;-73
2023/04/27 09:46:59;;;;;;;1.55;1.45;;;24.90;99.90;;;;;;5080787;28;20205;-74
2023/04/27 09:49:27;;;;;;;0.95;0.82;;;25.00;99.90;;;;;;5077072;28;20217;-74
2023/04/27 09:51:57;;;;;;;2.20;1.40;;;24.50;99.90;;;;;;5074823;28;20300;-73
2023/04/27 09:54:28;;;;;;;1.00;1.00;;;24.10;99.90;;;;;;5082944;28;20677;-71
2023/04/27 09:57:07;;;;;;;1.88;1.65;;;23.70;99.90;;;;;;5071184;28;20202;-74
2023/04/27 10:00:01;;;;;;;4.20;1.20;;;23.20;99.90;;;;;;5079514;28;20263;-73
2023/04/27 10:02:35;;;;;;;2.67;1.42;;;22.90;99.90;;;;;;5083013;28;20229;-72
2023/04/27 10:05:22;;;;;;;1.20;1.10;;;22.80;99.90;;;;;;5070914;28;20248;-73
2023/04/27 10:07:51;;;;;;;1.50;0.95;;;22.90;99.90;;;;;;5078167;28;20291;-73
2023/04/27 10:10:19;;;;;;;1.17;1.08;;;23.00;99.90;;;;;;5080319;28;20249;-73
2023/04/27 10:12:56;;;;;;;1.20;1.10;;;22.90;99.90;;;;;;5083265;28;20262;-74
2023/04/27 10:15:27;;;;;;;1.50;1.40;;;22.70;99.90;;;;;;5062911;28;20211;-73
2023/04/27 10:17:57;;;;;;;1.42;1.33;;;22.80;99.90;;;;;;5073098;28;20259;-73
2023/04/27 10:20:31;;;;;;;1.38;1.27;;;22.90;99.90;;;;;;5077001;28;20241;-73
2023/04/27 10:22:59;;;;;;;1.77;1.13;;;22.90;99.90;;;;;;5077722;28;20279;-73
2023/04/27 10:25:28;;;;;;;1.77;1.38;;;23.10;99.90;;;;;;5079408;28;20237;-71
2023/04/27 10:28:01;;;;;;;1.67;1.30;;;23.10;99.90;;;;;;5082784;28;20292;-73
2023/04/27 10:30:35;;;;;;;1.77;1.35;;;23.10;99.90;;;;;;5078892;28;20585;-73
2023/04/27 10:33:06;;;;;;;2.60;1.42;;;23.10;99.90;;;;;;5082612;28;20233;-73
2023/04/27 10:35:34;;;;;;;2.38;1.75;;;23.20;99.90;;;;;;5080763;28;20217;-73
2023/04/27 10:38:09;;;;;;;2.17;1.83;;;23.30;99.90;;;;;;5077850;28;20215;-74
2023/04/27 10:40:36;;;;;;;1.77;1.27;;;23.30;99.90;;;;;;5077958;28;20212;-73
2023/04/27 10:43:12;;;;;;;3.00;1.10;;;23.40;99.90;;;;;;5082320;28;20240;-73
2023/04/27 10:45:40;;;;;;;1.02;1.02;;;23.60;99.90;;;;;;5081590;28;20202;-75
2023/04/27 10:48:07;;;;;;;1.50;1.33;;;23.70;99.90;;;;;;5077802;28;20209;-74
2023/04/27 10:50:34;;;;;;;1.73;1.42;;;23.80;99.90;;;;;;5077652;28;20289;-73
2023/04/27 10:53:03;;;;;;;1.63;1.05;;;23.90;99.90;;;;;;5071019;28;20242;-73
2023/04/27 10:55:30;;;;;;;1.88;1.55;;;24.00;99.90;;;;;;5067879;28;20210;-73
2023/04/27 10:57:58;;;;;;;1.50;1.40;;;24.10;99.90;;;;;;5069380;28;20556;-73
2023/04/27 11:00:28;;;;;;;3.22;1.85;;;24.20;99.90;;;;;;5074094;28;20258;-72
2023/04/27 11:02:56;;;;;;;3.33;1.60;;;24.30;99.90;;;;;;5072999;28;20716;-73
2023/04/27 11:05:28;;;;;;;1.10;1.00;;;24.10;99.90;;;;;;5072851;28;20232;-73
2023/04/27 11:08:05;;;;;;;2.17;1.92;;;24.20;99.90;;;;;;5068962;28;20194;-73
2023/04/27 11:10:32;;;;;;;1.48;1.38;;;24.40;99.90;;;;;;5079514;28;20201;-71
2023/04/27 11:12:59;;;;;;;1.30;1.20;;;24.60;99.90;;;;;;5074423;28;20234;-73
2023/04/27 11:15:27;;;;;;;3.38;1.25;;;24.70;99.90;;;;;;5072777;28;20666;-73
2023/04/27 11:18:04;;;;;;;1.38;1.20;;;24.60;99.90;;;;;;5084341;28;20241;-72
2023/04/27 11:20:31;;;;;;;2.80;1.15;;;24.50;99.90;;;;;;5082114;28;20245;-74
2023/04/27 11:22:59;;;;;;;3.00;1.85;;;24.40;99.90;;;;;;5085630;28;20269;-72
2023/04/27 11:25:28;;;;;;;4.63;1.15;;;24.30;99.90;;;;;;5079908;28;20241;-73
2023/04/27 11:27:55;;;;;;;2.75;1.58;;;24.40;99.90;;;;;;5085167;28;20311;-73
2023/04/27 11:30:23;;;;;;;1.40;1.30;;;24.30;99.90;;;;;;5078117;28;20212;-72
2023/04/27 11:32:52;;;;;;;0.95;0.90;;;24.50;99.90;;;;;;5081949;28;20237;-71
2023/04/27 11:35:19;;;;;;;1.75;1.23;;;24.70;99.90;;;;;;5083155;28;20693;-73
2023/04/27 11:37:57;;;;;;;1.23;1.08;;;24.90;99.90;;;;;;5080206;28;20206;-73
2023/04/27 11:40:24;;;;;;;1.77;0.95;;;25.00;99.90;;;;;;5076821;28;20209;-73
2023/04/27 11:42:58;;;;;;;0.93;0.82;;;25.30;99.90;;;;;;5069339;28;20719;-73
2023/04/27 11:45:27;;;;;;;1.45;1.35;;;25.10;99.90;;;;;;5073614;28;20206;-73
2023/04/27 11:47:57;;;;;;;2.05;1.50;;;24.90;99.90;;;;;;5084939;28;20560;-73
2023/04/27 11:50:25;;;;;;;1.58;0.80;;;24.90;99.90;;;;;;5082288;28;20754;-73
2023/04/27 11:52:53;;;;;;;1.95;0.90;;;24.80;99.90;;;;;;5080426;28;20216;-73
2023/04/27 11:55:21;;;;;;;1.67;1.17;;;24.40;99.90;;;;;;5076461;28;20206;-72
2023/04/27 11:57:48;;;;;;;1.45;1.05;;;24.50;99.90;;;;;;5085467;28;20251;-72
2023/04/27 12:00:16;;;;;;;1.70;0.85;;;24.70;99.90;;;;;;5082664;28;20262;-73
2023/04/27 12:02:44;;;;;;;2.40;0.90;;;24.80;99.90;;;;;;5077477;28;20261;-73
2023/04/27 12:05:12;;;;;;;2.65;0.85;;;24.70;99.90;;;;;;5083071;28;20214;-74
2023/04/27 12:07:40;;;;;;;2.00;1.02;;;24.80;99.90;;;;;;5058255;28;20253;-71
2023/04/27 12:10:07;;;;;;;2.08;1.02;;;25.00;99.90;;;;;;5066200;28;20198;-73
2023/04/27 12:12:34;;;;;;;1.35;0.80;;;25.10;99.90;;;;;;5066738;28;20210;-73
2023/04/27 12:15:01;;;;;;;3.13;0.93;;;24.80;99.90;;;;;;5071816;28;20775;-74
2023/04/27 12:17:28;;;;;;;1.23;1.05;;;24.90;99.90;;;;;;5067463;28;20225;-74
2023/04/27 12:19:55;;;;;;;0.80;0.65;;;24.80;99.90;;;;;;5076703;28;20238;-72
2023/04/27 12:22:24;;;;;;;0.68;0.68;;;24.80;99.90;;;;;;5081738;28;20257;-72
2023/04/27 12:24:51;;;;;;;1.63;0.60;;;24.80;99.90;;;;;;5077422;28;20241;-72
2023/04/27 12:27:18;;;;;;;1.30;1.17;;;24.80;99.90;;;;;;5085957;28;20201;-73
2023/04/27 12:29:45;;;;;;;2.25;1.25;;;24.80;99.90;;;;;;5071389;28;20229;-73
2023/04/27 12:32:12;;;;;;;1.58;1.05;;;24.80;99.90;;;;;;5073196;28;20244;-75
2023/04/27 12:34:39;;;;;;;0.82;0.60;;;24.70;99.90;;;;;;5057814;28;20288;-73
2023/04/27 12:37:06;;;;;;;0.60;0.55;;;24.50;99.90;;;;;;5053049;28;20206;-73
2023/04/27 12:39:34;;;;;;;0.98;0.88;;;24.60;99.90;;;;;;5064617;28;20705;-75
2023/04/27 12:42:02;;;;;;;1.65;1.27;;;24.60;99.90;;;;;;5065997;28;20313;-73
2023/04/27 12:44:29;;;;;;;1.58;0.60;;;24.60;99.90;;;;;;5061515;28;20210;-74
2023/04/27 12:46:56;;;;;;;1.27;0.93;;;24.60;99.90;;;;;;5061685;28;20206;-73
2023/04/27 12:49:23;;;;;;;1.15;1.00;;;24.70;99.90;;;;;;5062574;28;20203;-75
2023/04/27 12:51:51;;;;;;;0.88;0.88;;;24.80;99.90;;;;;;5070213;28;20659;-74